Impacts METAR Board INFO
IDs:

KDFW - Dallas-Ft Worth Intl, TX, US

Updated at: 0533 UTC 13 Dec 2017
Potential Impact None Slight Moderate High
Time12/17Z 12/18Z 12/19Z 12/20Z 12/21Z 12/22Z 12/23Z 13/00Z 13/01Z 13/02Z 13/03Z 13/04Z 13/05Z
VIS10 10 10 10 10 10 10 10 10 10 10 10 10
CIG-- -- -- -- -- -- -- -- -- -- -- -- --
CoverCLRCLRCLRCLRCLRCLRCLRCLRCLRCLRCLRCLRCLR
FltCatVFRVFRVFRVFRVFRVFRVFRVFRVFRVFRVFRVFRVFR
WX--------------------------
WDir350350340330310340320320320310310240220
WSpd13 10 10 12 9 10 10 8 8 6 6 5 7
WGst-- -- -- 18 -- -- -- -- -- -- -- -- --
Raw hourly METARs
KDFW 121653Z 35013KT 10SM CLR 11/M02 A3043 RMK AO2 SLP301 T01061022 $
KDFW 121753Z 35010KT 10SM CLR 12/M02 A3040 RMK AO2 SLP292 T01171022 10122 20067 58002 $
KDFW 121853Z 34010KT 10SM CLR 12/M03 A3036 RMK AO2 SLP278 T01221028 $
KDFW 121953Z 33012G18KT 10SM CLR 13/M04 A3032 RMK AO2 SLP264 T01331044
KDFW 122053Z 31009KT 10SM CLR 14/M04 A3030 RMK AO2 SLP258 T01391039 56034
KDFW 122153Z 34010KT 10SM CLR 14/M04 A3028 RMK AO2 SLP250 T01391044
KDFW 122253Z 32010KT 10SM CLR 13/M03 A3026 RMK AO2 SLP243 T01331033
KDFW 122353Z 32008KT 10SM CLR 12/M03 A3025 RMK AO2 SLP241 T01171028 10144 20117 56018
KDFW 130053Z 32008KT 10SM CLR 11/M03 A3025 RMK AO2 SLP241 T01061028
KDFW 130153Z 31006KT 10SM CLR 10/M03 A3024 RMK AO2 SLP239 T01001033
KDFW 130253Z 31006KT 10SM CLR 10/M04 A3023 RMK AO2 SLP235 T01001039 58006
KDFW 130353Z 24005KT 10SM CLR 08/M03 A3020 RMK AO2 SLP226 T00781028
KDFW 130453Z 22007KT 10SM CLR 07/M02 A3018 RMK AO2 SLP220 T00671022